Time;durP1;ratioP1;P1;durP2;ratioP2;P2;SDS_P1;SDS_P2;PMS_P1;PMS_P2;Temp;Humidity;BMP_temperature;BMP_pressure;BME280_temperature;BME280_humidity;BME280_pressure;Samples;Min_cycle;Max_cycle;Signal;HPM_P1;HPM_P2
2021/12/05 00:20:44;;;;;;;10.43;9.43;;;0.90;99.90;;;;;;5113535;28;20271;-87
2021/12/05 00:23:17;;;;;;;9.40;8.50;;;0.90;99.90;;;;;;5113695;28;20279;-86
2021/12/05 00:25:51;;;;;;;10.70;9.63;;;0.90;99.90;;;;;;5113821;28;20291;-86
2021/12/05 00:28:49;;;;;;;12.73;10.97;;;0.90;99.90;;;;;;5112857;28;20261;-86
2021/12/05 00:31:34;;;;;;;12.07;10.17;;;0.90;99.90;;;;;;5113587;28;20286;-86
2021/12/05 00:34:19;;;;;;;13.80;11.37;;;0.90;99.90;;;;;;5113814;28;20231;-86
2021/12/05 00:59:45;;;;;;;12.43;11.13;;;0.90;99.90;;;;;;5113626;28;20279;-86
2021/12/05 01:02:30;;;;;;;13.03;11.37;;;0.90;99.90;;;;;;5113676;28;20255;-86
2021/12/05 01:10:48;;;;;;;11.97;10.43;;;1.00;99.90;;;;;;5109370;28;20235;-87
2021/12/05 01:13:32;;;;;;;11.47;10.27;;;1.00;99.90;;;;;;5113246;28;20203;-87
2021/12/05 01:16:06;;;;;;;11.50;10.40;;;1.00;99.90;;;;;;5112949;28;20264;-87
2021/12/05 01:18:35;;;;;;;12.60;11.40;;;1.00;99.90;;;;;;5113411;28;20265;-87
2021/12/05 01:21:10;;;;;;;10.87;9.77;;;1.00;99.90;;;;;;5113086;28;20200;-87
2021/12/05 01:23:50;;;;;;;12.00;10.50;;;0.90;99.90;;;;;;5113220;28;20227;-87
2021/12/05 01:26:22;;;;;;;13.67;12.03;;;0.90;99.90;;;;;;5112962;28;20294;-87
2021/12/05 01:31:45;;;;;;;16.97;11.37;;;0.90;99.90;;;;;;5109805;28;20208;-86
2021/12/05 01:34:27;;;;;;;13.60;11.73;;;0.90;99.90;;;;;;5113010;28;20302;-87
2021/12/05 01:37:06;;;;;;;14.77;11.73;;;1.00;99.90;;;;;;5112997;28;20226;-87
2021/12/05 01:39:49;;;;;;;14.30;11.53;;;1.00;99.90;;;;;;5112057;28;20199;-86
2021/12/05 01:45:46;;;;;;;12.07;10.80;;;1.00;99.90;;;;;;5031066;28;20262;-86
2021/12/05 01:57:24;;;;;;;12.17;10.73;;;1.00;99.90;;;;;;5066350;28;20683;-86
2021/12/05 02:11:20;;;;;;;13.40;12.00;;;1.00;99.90;;;;;;5087685;28;20213;-87
2021/12/05 02:29:26;;;;;;;22.80;12.33;;;1.00;99.90;;;;;;5066102;27;20308;-87
2021/12/05 02:34:03;;;;;;;13.47;12.07;;;1.00;99.90;;;;;;5066000;27;20249;-85
2021/12/05 02:42:09;;;;;;;18.07;11.17;;;1.10;99.90;;;;;;5065516;27;20254;-85
2021/12/05 02:44:38;;;;;;;14.37;12.93;;;1.10;99.90;;;;;;5065962;27;20296;-86
2021/12/05 02:47:10;;;;;;;15.73;14.07;;;1.10;99.90;;;;;;5065648;27;20252;-85
2021/12/05 02:49:41;;;;;;;14.47;12.93;;;1.20;99.90;;;;;;5065177;27;20232;-85
2021/12/05 02:52:16;;;;;;;14.43;13.00;;;1.10;99.90;;;;;;5065675;27;20262;-86
2021/12/05 02:54:50;;;;;;;13.77;12.47;;;1.10;99.90;;;;;;5065493;27;20257;-86
2021/12/05 02:57:30;;;;;;;15.30;13.73;;;1.20;99.90;;;;;;5065348;27;20240;-86
2021/12/05 03:00:07;;;;;;;16.80;14.43;;;1.20;99.90;;;;;;5065094;27;20276;-86
2021/12/05 03:02:40;;;;;;;15.53;13.27;;;1.20;99.90;;;;;;5065964;27;20224;-86
2021/12/05 03:05:13;;;;;;;16.97;14.70;;;1.20;99.90;;;;;;5065587;27;20239;-86
2021/12/05 03:07:43;;;;;;;16.23;14.63;;;1.20;99.90;;;;;;5055555;27;20310;-86
2021/12/05 03:10:16;;;;;;;14.67;13.20;;;1.20;99.90;;;;;;5051483;28;20210;-86
2021/12/05 03:12:46;;;;;;;15.73;14.13;;;1.20;99.90;;;;;;5051372;27;20236;-86
2021/12/05 03:15:18;;;;;;;14.33;12.97;;;1.20;99.90;;;;;;5052033;28;20256;-86
2021/12/05 03:17:47;;;;;;;15.73;14.10;;;1.20;99.90;;;;;;5051584;27;20252;-86
2021/12/05 03:20:17;;;;;;;19.60;15.13;;;1.20;99.90;;;;;;5051270;27;20257;-86
2021/12/05 03:22:46;;;;;;;14.30;12.93;;;1.20;99.90;;;;;;5051828;28;20236;-85
2021/12/05 03:25:16;;;;;;;21.57;13.37;;;1.20;99.90;;;;;;5051712;27;20300;-86
2021/12/05 03:27:44;;;;;;;15.27;13.67;;;1.20;99.90;;;;;;5051983;28;20285;-86
2021/12/05 03:30:20;;;;;;;14.17;12.73;;;1.30;99.90;;;;;;5051420;27;20241;-86
2021/12/05 03:32:50;;;;;;;14.30;12.90;;;1.30;99.90;;;;;;5051664;28;20240;-86
2021/12/05 03:35:21;;;;;;;16.17;14.50;;;1.30;99.90;;;;;;5051696;28;20297;-85
2021/12/05 03:37:51;;;;;;;13.63;12.23;;;1.20;99.90;;;;;;5051604;28;20225;-86
2021/12/05 03:40:25;;;;;;;17.00;14.27;;;1.20;99.90;;;;;;5051214;27;20293;-86
2021/12/05 03:42:56;;;;;;;16.80;14.60;;;1.30;99.90;;;;;;5051673;28;20285;-86
2021/12/05 03:45:27;;;;;;;14.87;12.77;;;1.30;99.90;;;;;;5051877;27;20274;-86
2021/12/05 03:47:57;;;;;;;15.40;13.80;;;1.30;99.90;;;;;;5051916;28;20218;-85
2021/12/05 03:50:26;;;;;;;15.70;14.20;;;1.30;99.90;;;;;;5050738;28;20206;-85
2021/12/05 03:52:55;;;;;;;15.43;13.83;;;1.30;99.90;;;;;;5051449;28;20236;-86
2021/12/05 03:55:25;;;;;;;15.53;13.53;;;1.30;99.90;;;;;;5051138;28;20237;-85
2021/12/05 03:57:54;;;;;;;17.37;14.47;;;1.30;99.90;;;;;;5050993;27;20226;-86
2021/12/05 04:00:25;;;;;;;19.30;15.23;;;1.30;99.90;;;;;;5050816;27;20201;-86
2021/12/05 04:02:58;;;;;;;15.10;13.50;;;1.30;99.90;;;;;;5051101;28;20202;-86
2021/12/05 04:05:27;;;;;;;16.43;14.70;;;1.30;99.90;;;;;;5051094;28;20205;-86
2021/12/05 04:07:56;;;;;;;14.13;12.13;;;1.30;99.90;;;;;;5051081;28;20230;-86
2021/12/05 04:10:27;;;;;;;16.23;14.30;;;1.30;99.90;;;;;;5050489;28;20301;-86
2021/12/05 04:12:57;;;;;;;15.53;14.00;;;1.30;99.90;;;;;;5050878;28;20285;-86
2021/12/05 04:15:26;;;;;;;15.43;13.97;;;1.30;99.90;;;;;;5051084;28;20256;-86
2021/12/05 04:17:54;;;;;;;18.40;16.50;;;1.30;99.90;;;;;;5049901;28;20260;-85
2021/12/05 04:20:23;;;;;;;15.57;13.80;;;1.30;99.90;;;;;;5049511;28;20236;-86
2021/12/05 04:22:54;;;;;;;15.40;13.63;;;1.40;99.90;;;;;;5051248;28;20206;-85
2021/12/05 04:25:23;;;;;;;16.00;14.30;;;1.40;99.90;;;;;;5050736;27;20206;-85
2021/12/05 04:27:54;;;;;;;15.33;13.73;;;1.40;99.90;;;;;;5050802;28;20260;-85
2021/12/05 04:30:25;;;;;;;17.57;15.57;;;1.40;99.90;;;;;;5050389;28;20294;-86
2021/12/05 04:32:53;;;;;;;16.10;14.43;;;1.40;99.90;;;;;;5050948;28;20213;-86
2021/12/05 04:35:22;;;;;;;16.07;14.43;;;1.40;99.90;;;;;;5050894;28;20241;-86
2021/12/05 04:37:51;;;;;;;17.10;15.30;;;1.40;99.90;;;;;;5050324;28;20254;-86
2021/12/05 04:40:19;;;;;;;16.80;15.03;;;1.40;99.90;;;;;;5049837;27;20205;-85
2021/12/05 04:42:48;;;;;;;18.13;15.13;;;1.50;99.90;;;;;;5050221;28;20270;-86
2021/12/05 04:45:24;;;;;;;16.63;14.40;;;1.50;99.90;;;;;;5050969;28;20298;-85
2021/12/05 04:47:53;;;;;;;14.83;13.43;;;1.50;99.90;;;;;;5050946;28;20237;-85
2021/12/05 04:50:22;;;;;;;16.73;14.13;;;1.50;99.90;;;;;;5049889;27;20230;-86
2021/12/05 04:52:51;;;;;;;15.77;14.17;;;1.50;99.90;;;;;;5050362;27;20214;-85
2021/12/05 04:55:22;;;;;;;17.57;15.67;;;1.40;99.90;;;;;;5050393;28;20218;-85
2021/12/05 04:57:51;;;;;;;15.43;13.70;;;1.40;99.90;;;;;;5050013;28;20225;-85
2021/12/05 05:00:24;;;;;;;17.13;15.03;;;1.50;99.90;;;;;;5050108;28;20304;-85
2021/12/05 05:02:53;;;;;;;14.80;13.47;;;1.50;99.90;;;;;;5050455;28;20293;-85
2021/12/05 05:05:23;;;;;;;16.13;13.83;;;1.50;99.90;;;;;;5050502;28;20216;-85
2021/12/05 05:07:51;;;;;;;18.83;15.90;;;1.50;99.90;;;;;;5049796;27;20242;-85
2021/12/05 05:10:22;;;;;;;18.00;15.13;;;1.50;99.90;;;;;;5049535;28;20293;-85
2021/12/05 05:12:50;;;;;;;17.73;14.20;;;1.60;99.90;;;;;;5049627;27;20201;-85
2021/12/05 05:15:25;;;;;;;16.10;14.60;;;1.60;99.90;;;;;;5050157;27;20228;-85
2021/12/05 05:17:55;;;;;;;15.27;13.67;;;1.60;99.90;;;;;;5050000;27;20313;-84
2021/12/05 05:20:32;;;;;;;15.23;13.63;;;1.60;99.90;;;;;;5049473;27;20297;-85
2021/12/05 05:23:16;;;;;;;19.83;15.70;;;1.70;99.90;;;;;;5049911;28;20225;-84
2021/12/05 05:45:59;;;;;;;15.70;13.10;;;1.70;99.90;;;;;;5090655;28;20205;-84
2021/12/05 05:48:36;;;;;;;14.63;13.03;;;1.80;99.90;;;;;;5052172;28;20308;-84
2021/12/05 05:51:07;;;;;;;13.63;12.27;;;1.80;99.90;;;;;;5049699;27;20293;-84
2021/12/05 05:53:36;;;;;;;13.13;11.83;;;1.90;99.90;;;;;;5049610;28;20285;-84
2021/12/05 05:56:09;;;;;;;15.07;13.47;;;2.00;99.90;;;;;;5049358;28;20237;-84
2021/12/05 05:58:42;;;;;;;15.53;13.37;;;2.10;99.90;;;;;;5048984;27;20313;-85
2021/12/05 06:01:19;;;;;;;14.67;12.37;;;2.10;99.90;;;;;;5049214;28;20209;-84
2021/12/05 06:03:50;;;;;;;12.87;11.67;;;2.10;99.90;;;;;;5049722;27;20269;-85
2021/12/05 06:06:19;;;;;;;13.57;12.17;;;2.20;99.90;;;;;;5049228;28;20229;-84
2021/12/05 06:08:47;;;;;;;16.60;13.33;;;2.20;99.90;;;;;;5048902;27;20265;-85
2021/12/05 06:11:17;;;;;;;17.10;11.93;;;2.30;99.90;;;;;;5049021;28;20235;-84
2021/12/05 06:13:46;;;;;;;13.43;12.03;;;2.30;99.90;;;;;;5048491;28;20273;-85
2021/12/05 06:16:16;;;;;;;11.27;10.20;;;2.30;99.90;;;;;;5049464;28;20288;-85
2021/12/05 06:18:45;;;;;;;10.57;9.47;;;2.30;99.90;;;;;;5048781;27;20222;-85
2021/12/05 06:21:17;;;;;;;10.87;9.90;;;2.40;99.90;;;;;;5048970;28;20293;-85
2021/12/05 06:23:46;;;;;;;10.53;9.53;;;2.50;99.90;;;;;;5049298;28;20293;-84
2021/12/05 06:26:21;;;;;;;7.75;7.15;;;2.60;99.90;;;;;;5049008;28;20221;-85
2021/12/05 06:29:00;;;;;;;10.67;9.77;;;2.70;99.90;;;;;;5049036;28;20256;-84
2021/12/05 06:31:43;;;;;;;12.85;11.60;;;2.70;99.90;;;;;;5049064;28;20274;-84
2021/12/05 06:37:14;;;;;;;8.63;7.90;;;2.80;99.90;;;;;;5048727;28;20289;-84
2021/12/05 06:39:48;;;;;;;9.77;8.88;;;2.90;99.90;;;;;;5048420;28;20213;-85
2021/12/05 06:42:45;;;;;;;6.72;6.22;;;2.90;99.90;;;;;;5050037;27;20301;-85
2021/12/05 06:48:03;;;;;;;6.63;6.07;;;3.00;99.90;;;;;;5052472;28;20256;-85
2021/12/05 06:50:31;;;;;;;5.73;5.33;;;3.10;99.90;;;;;;5052045;28;20299;-85
2021/12/05 06:53:02;;;;;;;7.50;6.78;;;3.10;99.90;;;;;;5052187;28;20268;-85
2021/12/05 06:55:30;;;;;;;7.18;6.57;;;3.20;99.90;;;;;;5052381;28;20229;-85
2021/12/05 06:57:59;;;;;;;5.75;5.25;;;3.20;99.90;;;;;;5051934;28;20290;-85
2021/12/05 07:00:30;;;;;;;8.32;7.50;;;3.30;99.90;;;;;;5051821;27;20212;-85
2021/12/05 07:02:59;;;;;;;6.43;5.93;;;3.30;99.90;;;;;;5052141;27;20202;-86
2021/12/05 07:05:42;;;;;;;11.02;9.95;;;3.30;99.90;;;;;;5051790;27;20210;-85
2021/12/05 07:08:15;;;;;;;7.88;7.28;;;3.40;99.90;;;;;;5052449;27;20248;-85
2021/12/05 07:10:50;;;;;;;10.73;9.82;;;3.40;99.90;;;;;;5051918;27;20266;-85
2021/12/05 07:16:12;;;;;;;4.28;3.97;;;3.50;99.90;;;;;;5051687;27;20297;-85
2021/12/05 07:18:53;;;;;;;5.57;5.17;;;3.50;99.90;;;;;;5051316;27;20252;-85
2021/12/05 07:24:27;;;;;;;4.28;3.97;;;3.50;99.90;;;;;;5041276;28;20297;-85
2021/12/05 07:40:45;;;;;;;3.47;3.28;;;3.80;99.90;;;;;;5051215;28;20296;-85
2021/12/05 07:43:17;;;;;;;3.45;3.20;;;3.70;99.90;;;;;;5051123;28;20248;-86
2021/12/05 07:45:53;;;;;;;2.47;2.38;;;3.70;99.90;;;;;;5051441;28;20241;-85
2021/12/05 07:48:27;;;;;;;3.42;3.22;;;3.80;99.90;;;;;;5051434;28;20308;-85
2021/12/05 07:51:07;;;;;;;4.07;3.78;;;3.80;99.90;;;;;;5050804;27;20209;-86
2021/12/05 07:53:45;;;;;;;5.82;3.88;;;3.80;99.90;;;;;;5051106;28;20205;-85
2021/12/05 07:56:19;;;;;;;4.10;3.78;;;3.90;99.90;;;;;;5051090;28;20238;-85
2021/12/05 07:59:00;;;;;;;3.22;2.92;;;3.90;99.90;;;;;;5050919;27;20312;-85
2021/12/05 08:15:23;;;;;;;3.05;2.85;;;4.00;99.90;;;;;;5051106;28;20288;-85
2021/12/05 08:17:53;;;;;;;3.55;3.30;;;4.00;99.90;;;;;;5050906;28;20266;-85
2021/12/05 08:20:26;;;;;;;4.65;4.25;;;4.00;99.90;;;;;;5050864;28;20198;-85
2021/12/05 08:22:55;;;;;;;3.60;3.25;;;4.00;99.90;;;;;;5050564;28;20317;-85
2021/12/05 08:25:28;;;;;;;3.03;2.80;;;4.00;99.90;;;;;;5050735;28;20296;-85
2021/12/05 08:28:07;;;;;;;4.63;3.08;;;4.10;99.90;;;;;;5050634;28;20313;-85
2021/12/05 08:30:36;;;;;;;2.63;2.42;;;4.10;99.90;;;;;;5050570;28;20289;-85
2021/12/05 08:33:26;;;;;;;2.70;2.50;;;4.10;99.90;;;;;;5050829;27;20297;-85
2021/12/05 08:41:47;;;;;;;3.33;3.13;;;4.10;99.90;;;;;;5050700;28;20252;-85
2021/12/05 08:44:57;;;;;;;3.25;2.95;;;4.10;99.90;;;;;;5050672;27;20293;-85
2021/12/05 09:40:34;;;;;;;2.70;2.25;;;3.90;99.90;;;;;;5007664;28;20207;-85
2021/12/05 10:11:09;;;;;;;2.03;1.92;;;3.90;99.90;;;;;;5048838;27;20217;-85
2021/12/05 10:13:53;;;;;;;4.15;2.42;;;3.90;99.90;;;;;;5049408;27;20292;-85
2021/12/05 10:16:42;;;;;;;3.88;2.78;;;3.90;99.90;;;;;;5049467;28;20234;-85
2021/12/05 10:36:18;;;;;;;2.30;2.10;;;3.90;99.90;;;;;;5010932;28;20227;-85
2021/12/05 10:38:51;;;;;;;4.82;2.40;;;3.90;99.90;;;;;;5021522;28;20289;-85
2021/12/05 10:41:47;;;;;;;2.30;2.15;;;3.80;99.90;;;;;;5052509;28;20201;-85
2021/12/05 10:44:16;;;;;;;4.63;3.83;;;3.80;99.90;;;;;;5052656;27;20210;-85
2021/12/05 10:46:50;;;;;;;3.20;2.63;;;3.80;99.90;;;;;;5052039;28;20289;-85
2021/12/05 10:49:19;;;;;;;3.67;3.28;;;3.90;99.90;;;;;;5051515;28;20252;-85
2021/12/05 10:51:50;;;;;;;2.65;2.45;;;3.90;99.90;;;;;;5052366;28;20236;-85
2021/12/05 10:54:21;;;;;;;3.85;3.30;;;3.90;99.90;;;;;;5052559;27;20230;-85
2021/12/05 10:56:55;;;;;;;2.97;2.65;;;4.00;99.90;;;;;;5052420;28;20225;-85
2021/12/05 10:59:29;;;;;;;2.60;2.40;;;4.00;99.90;;;;;;5051519;28;20222;-85
2021/12/05 11:02:00;;;;;;;4.05;3.75;;;4.10;99.90;;;;;;5052051;27;20254;-85
2021/12/05 11:04:30;;;;;;;2.60;2.40;;;4.10;99.90;;;;;;5052131;27;20206;-85
2021/12/05 11:07:00;;;;;;;2.65;2.45;;;4.10;99.90;;;;;;5052369;27;20202;-85
2021/12/05 11:09:31;;;;;;;3.00;2.40;;;4.20;99.90;;;;;;5051786;28;20221;-85
2021/12/05 11:12:05;;;;;;;8.73;3.22;;;4.20;99.90;;;;;;5050931;28;20277;-85
2021/12/05 11:14:36;;;;;;;4.35;3.17;;;4.30;99.90;;;;;;5051908;28;20292;-85
2021/12/05 11:17:09;;;;;;;5.53;4.72;;;4.30;99.90;;;;;;5051919;27;20229;-85
2021/12/05 11:19:41;;;;;;;3.03;2.58;;;4.30;99.90;;;;;;5050907;28;20218;-85
2021/12/05 11:22:17;;;;;;;2.92;2.72;;;4.40;99.90;;;;;;5051992;27;20199;-85
2021/12/05 11:24:50;;;;;;;9.65;3.00;;;4.40;99.90;;;;;;5051786;28;20219;-85
2021/12/05 11:27:30;;;;;;;3.22;2.70;;;4.40;99.90;;;;;;5051658;28;20237;-85
2021/12/05 11:30:15;;;;;;;4.28;3.33;;;4.30;99.90;;;;;;5051072;28;20240;-85
2021/12/05 11:32:48;;;;;;;2.45;2.25;;;4.30;99.90;;;;;;5052373;27;20291;-85
2021/12/05 11:35:26;;;;;;;1.98;1.88;;;4.30;99.90;;;;;;5051621;28;20222;-85
2021/12/05 11:38:01;;;;;;;2.03;1.90;;;4.30;99.90;;;;;;5051721;28;20222;-85
2021/12/05 11:40:41;;;;;;;2.45;2.22;;;4.20;99.90;;;;;;5050942;28;20312;-85
2021/12/05 11:43:13;;;;;;;1.98;1.88;;;4.10;99.90;;;;;;5051382;28;20297;-85
2021/12/05 11:45:54;;;;;;;2.45;2.25;;;4.10;99.90;;;;;;5051241;28;20202;-85
2021/12/05 11:48:25;;;;;;;1.85;1.75;;;4.10;99.90;;;;;;5051601;27;20221;-85
2021/12/05 11:50:58;;;;;;;1.63;1.50;;;4.10;99.90;;;;;;5051104;27;20289;-85
2021/12/05 11:53:42;;;;;;;1.90;1.80;;;4.10;99.90;;;;;;5050865;27;20240;-85
2021/12/05 11:56:16;;;;;;;2.42;2.22;;;4.10;99.90;;;;;;5051280;27;20233;-85
2021/12/05 11:59:01;;;;;;;3.08;2.78;;;4.20;99.90;;;;;;5050996;28;20320;-85
2021/12/05 12:01:36;;;;;;;3.47;2.60;;;4.20;99.90;;;;;;5050878;28;20226;-85
2021/12/05 12:04:05;;;;;;;2.42;1.92;;;4.20;99.90;;;;;;5051411;27;20292;-85
2021/12/05 12:06:34;;;;;;;2.17;2.00;;;4.30;99.90;;;;;;5051135;27;20249;-84
2021/12/05 12:09:04;;;;;;;4.13;2.03;;;4.20;99.90;;;;;;5050560;28;20309;-85
2021/12/05 12:11:34;;;;;;;3.45;2.78;;;4.20;99.90;;;;;;5050015;28;20224;-85
2021/12/05 12:14:04;;;;;;;5.18;3.65;;;4.20;99.90;;;;;;5051154;28;20251;-85
2021/12/05 12:16:34;;;;;;;2.65;2.42;;;4.20;99.90;;;;;;5051123;28;20233;-85
2021/12/05 12:19:06;;;;;;;2.03;1.67;;;4.20;99.90;;;;;;5050689;27;20244;-85
2021/12/05 12:21:41;;;;;;;2.40;2.20;;;4.20;99.90;;;;;;5050647;27;20222;-85
2021/12/05 12:24:12;;;;;;;6.63;2.85;;;4.20;99.90;;;;;;5050889;28;20209;-85
2021/12/05 12:26:41;;;;;;;2.08;1.83;;;4.20;99.90;;;;;;5050835;28;20270;-85
2021/12/05 12:29:13;;;;;;;2.63;2.42;;;4.20;99.90;;;;;;5050298;28;20297;-85
2021/12/05 12:31:45;;;;;;;2.88;2.17;;;4.20;99.90;;;;;;5051121;28;20202;-85
2021/12/05 12:34:17;;;;;;;2.20;2.00;;;4.20;99.90;;;;;;5050649;28;20224;-85
2021/12/05 12:36:49;;;;;;;2.65;2.42;;;4.20;99.90;;;;;;5050665;27;20278;-86
2021/12/05 12:39:33;;;;;;;1.83;1.73;;;4.20;99.90;;;;;;5049835;28;20296;-86
2021/12/05 12:42:06;;;;;;;1.77;1.67;;;4.20;99.90;;;;;;5051122;27;20293;-86
2021/12/05 12:44:36;;;;;;;3.13;1.80;;;4.20;99.90;;;;;;5050575;28;20289;-86
2021/12/05 12:47:07;;;;;;;2.97;2.10;;;4.20;99.90;;;;;;5050294;27;20312;-86
2021/12/05 12:49:38;;;;;;;2.83;2.38;;;4.20;99.90;;;;;;5050314;27;20266;-86
2021/12/05 12:52:09;;;;;;;3.13;2.35;;;4.20;99.90;;;;;;5050529;28;20284;-86
2021/12/05 12:54:42;;;;;;;15.52;2.33;;;4.20;99.90;;;;;;5050192;28;20206;-86
2021/12/05 12:57:14;;;;;;;3.13;2.10;;;4.30;99.90;;;;;;5050526;28;20325;-86
2021/12/05 13:00:01;;;;;;;1.77;1.67;;;4.30;99.90;;;;;;5049989;28;20259;-85
2021/12/05 13:02:38;;;;;;;3.20;1.63;;;4.30;99.90;;;;;;5050540;28;20296;-85
2021/12/05 13:05:25;;;;;;;2.28;2.08;;;4.20;99.90;;;;;;5050493;27;20267;-85
2021/12/05 13:10:52;;;;;;;2.30;2.10;;;4.20;99.90;;;;;;5049876;28;20268;-85
2021/12/05 13:13:25;;;;;;;2.25;2.05;;;4.20;99.90;;;;;;5050139;28;20313;-85
2021/12/05 13:15:59;;;;;;;1.80;1.70;;;4.20;99.90;;;;;;5050173;27;20233;-85
2021/12/05 13:18:31;;;;;;;2.40;2.20;;;4.20;99.90;;;;;;5050272;27;20225;-85
2021/12/05 13:21:04;;;;;;;1.83;1.70;;;4.20;99.90;;;;;;5049447;28;20312;-85
2021/12/05 13:23:42;;;;;;;2.15;1.80;;;4.20;99.90;;;;;;5050104;28;20391;-85
2021/12/05 13:26:24;;;;;;;2.00;1.70;;;4.20;99.90;;;;;;5050017;28;20236;-85
2021/12/05 13:28:56;;;;;;;4.82;1.83;;;4.20;99.90;;;;;;5049521;28;20264;-86
2021/12/05 13:31:41;;;;;;;1.63;1.52;;;4.20;99.90;;;;;;5050317;28;20228;-85
2021/12/05 13:34:23;;;;;;;1.27;1.23;;;4.10;99.90;;;;;;5050028;28;20208;-85
2021/12/05 13:36:55;;;;;;;1.80;1.58;;;4.10;99.90;;;;;;5050252;28;20305;-85
2021/12/05 13:39:39;;;;;;;1.80;1.65;;;4.10;99.90;;;;;;5049434;28;20214;-85
2021/12/05 13:42:16;;;;;;;2.20;1.55;;;4.00;99.90;;;;;;5049326;27;20240;-85
2021/12/05 13:45:11;;;;;;;1.88;1.60;;;4.10;99.90;;;;;;5049744;27;20229;-85
2021/12/05 13:47:45;;;;;;;4.37;1.70;;;4.10;99.90;;;;;;5049746;28;20312;-85
2021/12/05 13:50:28;;;;;;;1.60;1.50;;;4.00;99.90;;;;;;5049324;28;20321;-85
2021/12/05 13:53:14;;;;;;;1.58;1.48;;;4.00;99.90;;;;;;5049620;28;20297;-85
2021/12/05 13:55:45;;;;;;;2.13;1.63;;;4.10;99.90;;;;;;5048702;28;20213;-85
2021/12/05 13:58:24;;;;;;;1.50;1.40;;;4.00;99.90;;;;;;5049437;28;20309;-85
2021/12/05 14:00:58;;;;;;;1.77;1.67;;;4.00;99.90;;;;;;5049358;28;20254;-84
2021/12/05 14:03:58;;;;;;;2.08;1.90;;;4.00;99.90;;;;;;5049725;28;20209;-85
2021/12/05 14:06:52;;;;;;;2.85;1.98;;;4.00;99.90;;;;;;5049317;28;20293;-87
2021/12/05 14:09:28;;;;;;;3.80;2.33;;;3.90;99.90;;;;;;5049255;27;20205;-87
2021/12/05 14:12:00;;;;;;;1.95;1.85;;;3.90;99.90;;;;;;5048427;27;20202;-87
2021/12/05 14:14:34;;;;;;;2.10;1.90;;;3.90;99.90;;;;;;5049408;28;20218;-87
2021/12/05 14:17:06;;;;;;;3.58;2.65;;;3.80;99.90;;;;;;5049406;28;20226;-87
2021/12/05 14:19:39;;;;;;;1.77;1.67;;;3.80;99.90;;;;;;5048722;27;20286;-87
2021/12/05 14:22:10;;;;;;;3.10;2.30;;;3.80;99.90;;;;;;5049124;28;20312;-87
2021/12/05 14:24:40;;;;;;;2.53;2.33;;;3.80;99.90;;;;;;5048917;28;20206;-87
2021/12/05 14:27:12;;;;;;;3.03;2.55;;;3.80;99.90;;;;;;5049210;28;20309;-87
2021/12/05 14:29:42;;;;;;;2.92;2.65;;;3.80;99.90;;;;;;5048721;28;20241;-87
2021/12/05 14:32:14;;;;;;;3.65;2.90;;;3.80;99.90;;;;;;5048933;28;20194;-86
2021/12/05 14:34:45;;;;;;;3.55;3.25;;;3.80;99.90;;;;;;5048849;28;20233;-86
2021/12/05 14:37:16;;;;;;;2.85;2.65;;;3.80;99.90;;;;;;5048968;28;20245;-86
2021/12/05 14:39:47;;;;;;;3.13;2.45;;;3.80;99.90;;;;;;5048774;28;20202;-84
2021/12/05 14:42:18;;;;;;;3.72;3.03;;;3.80;99.90;;;;;;5048849;28;20285;-84
2021/12/05 14:44:48;;;;;;;3.33;2.58;;;3.90;99.90;;;;;;5049260;28;20217;-84
2021/12/05 14:47:19;;;;;;;3.33;3.03;;;3.80;99.90;;;;;;5048879;28;20237;-84
2021/12/05 14:49:53;;;;;;;3.08;2.70;;;3.80;99.90;;;;;;5048486;28;20288;-84
2021/12/05 14:52:23;;;;;;;4.50;3.72;;;3.80;99.90;;;;;;5048531;28;20206;-84
2021/12/05 14:54:53;;;;;;;3.78;3.47;;;3.90;99.90;;;;;;5048452;28;20301;-84
2021/12/05 14:57:24;;;;;;;3.28;2.97;;;3.90;99.90;;;;;;5049131;28;20253;-84
2021/12/05 15:00:01;;;;;;;3.50;3.20;;;3.90;99.90;;;;;;5048610;27;20210;-84
2021/12/05 15:02:29;;;;;;;5.35;3.83;;;3.90;99.90;;;;;;5048396;28;20245;-84
2021/12/05 15:04:59;;;;;;;4.90;3.85;;;3.80;99.90;;;;;;5052080;28;20202;-84
2021/12/05 15:07:28;;;;;;;3.22;3.03;;;3.90;99.90;;;;;;5051638;27;20256;-86
2021/12/05 15:09:58;;;;;;;5.85;4.57;;;3.90;99.90;;;;;;5051803;28;20220;-84
2021/12/05 15:12:29;;;;;;;4.40;4.00;;;3.90;99.90;;;;;;5051039;27;20198;-84
2021/12/05 15:14:59;;;;;;;6.72;4.80;;;3.80;99.90;;;;;;5051633;27;20265;-84
2021/12/05 15:17:30;;;;;;;5.55;5.10;;;3.80;99.90;;;;;;5051843;28;20268;-84
2021/12/05 15:20:01;;;;;;;7.88;6.10;;;3.90;99.90;;;;;;5051261;28;20197;-84
2021/12/05 15:22:46;;;;;;;5.85;5.38;;;3.80;99.90;;;;;;5052155;28;20309;-84
2021/12/05 15:25:18;;;;;;;3.63;3.35;;;3.80;99.90;;;;;;5051736;28;20225;-84
2021/12/05 15:27:48;;;;;;;6.38;5.13;;;3.80;99.90;;;;;;5051655;28;20229;-84
2021/12/05 15:30:20;;;;;;;4.95;4.25;;;3.80;99.90;;;;;;5050670;28;20277;-84
2021/12/05 15:32:54;;;;;;;4.30;3.95;;;3.80;99.90;;;;;;5051777;28;20293;-84
2021/12/05 15:35:25;;;;;;;5.03;4.28;;;3.90;99.90;;;;;;5052098;28;20252;-84
2021/12/05 15:37:57;;;;;;;7.38;5.68;;;3.90;99.90;;;;;;5051705;27;20236;-84
2021/12/05 15:40:27;;;;;;;4.78;4.38;;;3.80;99.90;;;;;;5051072;27;20292;-83
2021/12/05 15:43:00;;;;;;;6.65;5.55;;;3.80;99.90;;;;;;5051369;28;20226;-84
2021/12/05 15:45:29;;;;;;;7.95;7.15;;;3.80;99.90;;;;;;5051659;28;20297;-84
2021/12/05 15:47:57;;;;;;;7.82;5.63;;;3.80;99.90;;;;;;5051106;28;20281;-84
2021/12/05 15:50:29;;;;;;;5.90;4.80;;;3.80;99.90;;;;;;5050771;28;20202;-84
2021/12/05 15:52:59;;;;;;;3.90;3.60;;;3.80;99.90;;;;;;5051680;27;20281;-84
2021/12/05 15:55:32;;;;;;;4.72;4.32;;;3.80;99.90;;;;;;5051073;27;20221;-84
2021/12/05 15:58:06;;;;;;;4.30;3.90;;;3.80;99.90;;;;;;5051286;28;20281;-84
2021/12/05 16:00:38;;;;;;;5.15;4.65;;;3.80;99.90;;;;;;5050668;27;20288;-83
2021/12/05 16:03:09;;;;;;;6.53;5.78;;;3.80;99.90;;;;;;5050930;27;20232;-84
2021/12/05 16:05:42;;;;;;;5.10;4.60;;;3.80;99.90;;;;;;5051118;28;20236;-84
2021/12/05 16:08:12;;;;;;;4.93;4.22;;;3.80;99.90;;;;;;5051039;28;20225;-84
2021/12/05 16:10:42;;;;;;;4.55;4.05;;;3.80;99.90;;;;;;5051028;28;20202;-84
2021/12/05 16:13:14;;;;;;;5.32;4.90;;;3.70;99.90;;;;;;5051297;28;20293;-84
2021/12/05 16:15:47;;;;;;;4.93;4.53;;;3.70;99.90;;;;;;5050936;28;20214;-84
2021/12/05 16:18:17;;;;;;;4.43;4.13;;;3.70;99.90;;;;;;5051317;28;20459;-84
2021/12/05 16:20:48;;;;;;;4.20;3.80;;;3.70;99.90;;;;;;5050601;28;20210;-84
2021/12/05 16:23:22;;;;;;;4.40;4.00;;;3.70;99.90;;;;;;5050582;28;20278;-84
2021/12/05 16:26:04;;;;;;;4.70;4.30;;;3.70;99.90;;;;;;5050870;28;20235;-84
2021/12/05 16:28:35;;;;;;;5.68;5.18;;;3.70;99.90;;;;;;5050713;27;20257;-84
2021/12/05 16:31:14;;;;;;;6.15;5.50;;;3.70;99.90;;;;;;5050788;28;20198;-84
2021/12/05 16:33:45;;;;;;;6.13;4.85;;;3.70;99.90;;;;;;5051142;28;20238;-84
2021/12/05 16:36:17;;;;;;;4.28;3.85;;;3.70;99.90;;;;;;5050611;27;20254;-83
2021/12/05 16:38:48;;;;;;;4.80;4.38;;;3.70;99.90;;;;;;5050764;27;20226;-84
2021/12/05 16:41:21;;;;;;;4.10;3.70;;;3.70;99.90;;;;;;5051055;28;20208;-84
2021/12/05 16:43:59;;;;;;;4.45;3.83;;;3.70;99.90;;;;;;5050833;27;20222;-84
2021/12/05 16:46:32;;;;;;;3.80;3.50;;;3.70;99.90;;;;;;5050160;28;20202;-83
2021/12/05 16:49:03;;;;;;;4.68;4.28;;;3.70;99.90;;;;;;5050155;28;20230;-84
2021/12/05 16:51:36;;;;;;;6.00;3.50;;;3.70;99.90;;;;;;5050760;28;20243;-84
2021/12/05 16:54:16;;;;;;;3.85;3.42;;;3.70;99.90;;;;;;5050399;28;20225;-84
2021/12/05 16:56:50;;;;;;;5.10;4.53;;;3.70;99.90;;;;;;5050139;27;20217;-84
2021/12/05 16:59:27;;;;;;;4.70;4.30;;;3.70;99.90;;;;;;5050160;28;20237;-83
2021/12/05 17:02:14;;;;;;;12.23;5.35;;;3.70;99.90;;;;;;5050087;28;20305;-84
2021/12/05 17:04:56;;;;;;;6.20;4.68;;;3.70;99.90;;;;;;5050688;28;20209;-84
2021/12/05 17:07:42;;;;;;;4.63;4.22;;;3.70;99.90;;;;;;5050477;27;20230;-84
2021/12/05 17:10:37;;;;;;;4.43;4.03;;;3.70;99.90;;;;;;5049542;27;20236;-84
2021/12/05 17:13:24;;;;;;;5.47;4.82;;;3.70;99.90;;;;;;5049238;28;20202;-85
2021/12/05 17:16:00;;;;;;;5.30;4.80;;;3.70;99.90;;;;;;5050537;28;20210;-85
2021/12/05 17:18:32;;;;;;;6.20;5.60;;;3.70;99.90;;;;;;5050130;27;20232;-85
2021/12/05 17:21:06;;;;;;;6.13;4.65;;;3.70;99.90;;;;;;5049647;27;20269;-85
2021/12/05 17:23:40;;;;;;;5.40;4.97;;;3.70;99.90;;;;;;5049573;28;20222;-85
2021/12/05 17:26:22;;;;;;;6.10;5.53;;;3.60;99.90;;;;;;5049361;28;20277;-85
2021/12/05 17:28:53;;;;;;;5.72;5.20;;;3.60;99.90;;;;;;5049296;28;20233;-85
2021/12/05 17:31:30;;;;;;;5.50;5.07;;;3.60;99.90;;;;;;5050011;28;20244;-85
2021/12/05 17:34:01;;;;;;;5.63;5.18;;;3.50;99.90;;;;;;5049946;27;20198;-85
2021/12/05 17:36:32;;;;;;;5.40;4.90;;;3.60;99.90;;;;;;5049914;28;20338;-85
2021/12/05 17:39:07;;;;;;;4.95;4.55;;;3.60;99.90;;;;;;5049376;28;20230;-86
2021/12/05 17:41:36;;;;;;;5.32;4.93;;;3.50;99.90;;;;;;5049589;28;20205;-86
2021/12/05 17:44:06;;;;;;;6.15;5.60;;;3.50;99.90;;;;;;5049655;27;20284;-86
2021/12/05 17:46:37;;;;;;;8.15;6.13;;;3.50;99.90;;;;;;5049827;28;20234;-86
2021/12/05 17:49:07;;;;;;;7.93;6.22;;;3.50;99.90;;;;;;5049120;28;20225;-87